Amity Harbor, New York
Current Conditions -  °F | °C
As of 1:53 PM on Thursday 27 Nov 2014 (Local Time) from KFRG Reporting Station
Overcast Overcast  
Wind Chill: 32°   Ceiling: 2000
Heat Index: 38°   Visibility: 10mi
Dew Point: 31°   Wind: 8mph
Humidity: 76%   Direction: 350°N
Pressure: 29.97"   Gusts: NA
Location:  40.6858°N, 73.4152°W
Report Text: KFRG 271853Z 35007KT 10SM OVC020 03/M01 A2997 RMK AO2 SLP148 T00331006
Loading
Personal Weather Stations






























Interactive Weather Map New forecast layout! Learn more

10-Day Weather Forecast

Advertisements
Track Severe Weather on mobile